»·PEaware :: N204LE KSEA-KORS

N204LE :: KSEA-KORS

FLIGHT INFORMATION

Flight Status: Arrived
Operator: Privately registered:
United States
More flights under this callsign
Pilot: Bill F. (18685)
Aircraft: CESSNA 208 CARAVAN
(C208)
More flights by this aircraft type
Origin: KSEA Seattle-Tacoma Intl
United States
Destination: KORS Orcas Island
United States
More flights between these airports :: More routes between these airports
Route: SEA7 WATTR
File this flight plan on PilotEdge
Remarks:
Altitude:
(Current/Filed)
6,000ft
Speed:
(Current/Filed)
150kts
Departed: 04-Feb-21 08:02 PM
Arrived: 04-Feb-21 09:06 PM
Distance/Time
Traveled:
79nm/1:04
Distance/Time
To Go:
Arrived

Flight Plot

Page will automatically refresh every two minutes.

Flight plan parsing failed; only flown route is shown


Map Options




Map Legend


Flown Route
Filed Route
Departure Airport
Arrival Airport
Navaid (VOR, NDB)
Fix

Horizontal Profiles

Position Reports

Time Latitude Longitude Heading Altitude Ground
Speed
04-Feb-21 19:36 47.438202 -122.315278 318 372ft 0kts
04-Feb-21 19:37 47.438202 -122.315278 318 372ft 0kts
04-Feb-21 19:38 47.438202 -122.315278 318 372ft 0kts
04-Feb-21 19:39 47.438202 -122.315278 318 372ft 0kts
04-Feb-21 19:40 47.438202 -122.315278 318 372ft 0kts
04-Feb-21 19:41 47.438202 -122.315278 318 372ft 0kts
04-Feb-21 19:42 47.438202 -122.315278 318 372ft 0kts
04-Feb-21 19:43 47.438202 -122.315278 318 372ft 0kts
04-Feb-21 19:44 47.438202 -122.315278 318 372ft 0kts
04-Feb-21 19:45 47.438202 -122.315278 318 372ft 0kts
04-Feb-21 19:46 47.438202 -122.315278 318 372ft 0kts
04-Feb-21 19:48 47.438202 -122.315278 318 372ft 0kts
04-Feb-21 19:49 47.438202 -122.315278 318 372ft 0kts
04-Feb-21 19:50 47.438202 -122.315278 318 372ft 0kts
04-Feb-21 19:51 47.438202 -122.315278 318 372ft 0kts
04-Feb-21 19:52 47.438202 -122.315278 318 372ft 0kts
04-Feb-21 19:53 47.438202 -122.315278 318 372ft 0kts
04-Feb-21 19:54 47.438465 -122.315300 24 372ft 0kts
04-Feb-21 19:55 47.439496 -122.314452 72 376ft 9kts
04-Feb-21 19:56 47.442800 -122.313612 1 373ft 12kts
04-Feb-21 19:57 47.451067 -122.313525 1 396ft 28kts
04-Feb-21 19:58 47.457437 -122.313485 359 415ft 20kts
04-Feb-21 19:59 47.463677 -122.312490 95 430ft 0kts
04-Feb-21 20:00 47.463677 -122.312490 95 430ft 0kts
04-Feb-21 20:01 47.463677 -122.312490 95 430ft 0kts
04-Feb-21 20:02 47.459681 -122.311026 181 421ft 71kts
04-Feb-21 20:03 47.431062 -122.308719 175 1274ft 118kts
04-Feb-21 20:03 47.404673 -122.308171 178 2089ft 111kts
04-Feb-21 20:05 47.381465 -122.340364 276 2765ft 141kts
04-Feb-21 20:06 47.389931 -122.394361 275 3565ft 132kts
04-Feb-21 20:06 47.415276 -122.420320 347 3943ft 155kts
04-Feb-21 20:07 47.456380 -122.447394 326 3985ft 168kts
04-Feb-21 20:08 47.498239 -122.471403 0 4358ft 162kts
04-Feb-21 20:09 47.537912 -122.493542 335 4923ft 152kts
04-Feb-21 20:10 47.577365 -122.516420 335 5117ft 149kts
04-Feb-21 20:11 47.616091 -122.538936 334 5735ft 148kts
04-Feb-21 20:12 47.653724 -122.560931 334 6145ft 148kts
04-Feb-21 20:13 47.691317 -122.582773 334 6117ft 146kts
04-Feb-21 20:14 47.728505 -122.604470 334 6091ft 141kts
04-Feb-21 20:15 47.764853 -122.625684 334 6134ft 140kts
04-Feb-21 20:16 47.802602 -122.647819 334 6161ft 148kts
04-Feb-21 20:17 47.840492 -122.669949 333 6166ft 138kts
04-Feb-21 20:18 47.873908 -122.693727 327 6165ft 130kts
04-Feb-21 20:19 47.905790 -122.719998 326 6172ft 131kts
04-Feb-21 20:20 47.937465 -122.746543 328 6165ft 132kts
04-Feb-21 20:21 47.974834 -122.744180 1 6175ft 136kts
04-Feb-21 20:22 48.012841 -122.737641 1 6182ft 136kts
04-Feb-21 20:23 48.050264 -122.730967 1 6185ft 136kts
04-Feb-21 20:24 48.086175 -122.732428 347 6175ft 130kts
04-Feb-21 20:25 48.120363 -122.745140 329 6206ft 124kts
04-Feb-21 20:26 48.137713 -122.782228 272 6127ft 119kts
04-Feb-21 20:27 48.168816 -122.796484 355 6031ft 128kts
04-Feb-21 20:28 48.204049 -122.790717 359 6091ft 125kts
04-Feb-21 20:29 48.238749 -122.783666 359 6161ft 125kts
04-Feb-21 20:30 48.273349 -122.775912 359 6238ft 125kts
04-Feb-21 20:31 48.307664 -122.767810 359 6307ft 124kts
04-Feb-21 20:32 48.341642 -122.759310 359 6380ft 123kts
04-Feb-21 20:33 48.375665 -122.750679 359 6446ft 123kts
04-Feb-21 20:34 48.409687 -122.742379 359 6506ft 123kts
04-Feb-21 20:35 48.444431 -122.734392 359 6569ft 128kts
04-Feb-21 20:36 48.479990 -122.726481 359 6622ft 130kts
04-Feb-21 20:37 48.516007 -122.721136 356 6679ft 129kts
04-Feb-21 20:38 48.551952 -122.718059 354 6798ft 129kts
04-Feb-21 20:39 48.588280 -122.716107 349 6692ft 148kts
04-Feb-21 20:40 48.638385 -122.715361 358 4272ft 176kts
04-Feb-21 20:41 48.680571 -122.709761 350 4462ft 160kts
04-Feb-21 20:42 48.725231 -122.715944 349 4255ft 159kts
04-Feb-21 20:43 48.769342 -122.720030 348 4143ft 163kts
04-Feb-21 20:44 48.814897 -122.723419 351 3971ft 157kts
04-Feb-21 20:45 48.856884 -122.733932 342 4062ft 161kts
04-Feb-21 20:46 48.900692 -122.745571 344 4320ft 149kts
04-Feb-21 20:47 48.944389 -122.749783 6 4277ft 170kts
04-Feb-21 20:48 48.984968 -122.724719 69 4341ft 171kts
04-Feb-21 20:49 48.958241 -122.702810 207 3852ft 145kts
04-Feb-21 20:50 48.928533 -122.743837 242 3323ft 154kts
04-Feb-21 20:51 48.896364 -122.784767 195 2401ft 163kts
04-Feb-21 20:52 48.858327 -122.809379 226 643ft 165kts
04-Feb-21 20:53 48.843254 -122.836768 181 5ft 2kts
04-Feb-21 20:54 48.842538 -122.836518 161 5ft 0kts
04-Feb-21 20:55 48.842019 -122.836183 164 5ft 7kts
04-Feb-21 20:56 48.840191 -122.834539 156 5ft 7kts
04-Feb-21 20:57 48.838140 -122.833024 147 5ft 8kts
04-Feb-21 20:58 48.836165 -122.831018 146 5ft 8kts
04-Feb-21 20:59 48.834291 -122.829062 153 182ft 31kts
04-Feb-21 21:00 48.818872 -122.850844 198 561ft 100kts
04-Feb-21 21:01 48.789873 -122.857656 199 1594ft 129kts
04-Feb-21 21:02 48.752787 -122.880019 207 1770ft 146kts
04-Feb-21 21:03 48.733244 -122.898596 214 1509ft 83kts
04-Feb-21 21:04 48.712455 -122.910695 181 105ft 76kts
04-Feb-21 21:05 48.705230 -122.909979 0 40ft 8kts
04-Feb-21 21:06 48.705387 -122.909677 187 38ft 0kts
04-Feb-21 21:07 48.705387 -122.909677 187 38ft 0kts
04-Feb-21 21:08 48.705387 -122.909677 187 38ft 0kts
04-Feb-21 21:09 48.705387 -122.909677 187 38ft 0kts
04-Feb-21 21:10 48.705387 -122.909677 187 38ft 0kts
04-Feb-21 21:11 48.705387 -122.909677 187 38ft 0kts

Navigation Log

Ident Type
Flight plan parsing failed, navigation log unavailable